Time;durP1;ratioP1;P1;durP2;ratioP2;P2;SDS_P1;SDS_P2;PMS_P1;PMS_P2;Temp;Humidity;BMP_temperature;BMP_pressure;BME280_temperature;BME280_humidity;BME280_pressure;Samples;Min_cycle;Max_cycle;Signal;HPM_P1;HPM_P2
2023/05/06 00:01:33;;;;;;;2.07;1.40;;;19.60;58.20;;;;;;5049224;28;20627;-68
2023/05/06 00:03:59;;;;;;;2.57;1.70;;;19.50;57.40;;;;;;5029391;28;20192;-67
2023/05/06 00:06:26;;;;;;;2.53;1.33;;;19.40;57.30;;;;;;5032950;28;20182;-67
2023/05/06 00:08:51;;;;;;;2.83;1.50;;;19.40;57.30;;;;;;5033173;28;20216;-68
2023/05/06 00:11:17;;;;;;;2.20;1.60;;;19.40;57.30;;;;;;5032242;28;20469;-70
2023/05/06 00:13:43;;;;;;;2.47;1.43;;;19.40;57.30;;;;;;5031512;28;20193;-67
2023/05/06 00:16:08;;;;;;;2.43;1.70;;;19.40;57.30;;;;;;5031184;28;20192;-67
2023/05/06 00:18:34;;;;;;;3.03;1.80;;;19.40;57.30;;;;;;5062218;23;20311;-69
2023/05/06 00:21:00;;;;;;;1.97;1.33;;;19.40;57.30;;;;;;5051559;28;20184;-69
2023/05/06 00:23:25;;;;;;;2.00;1.40;;;19.40;57.30;;;;;;5050458;28;20435;-70
2023/05/06 00:25:53;;;;;;;2.10;1.30;;;19.40;57.30;;;;;;5049965;28;20176;-69
2023/05/06 00:28:19;;;;;;;3.23;1.60;;;19.40;57.30;;;;;;5051996;28;20234;-69
2023/05/06 00:30:44;;;;;;;2.23;1.50;;;19.40;57.30;;;;;;5050399;28;20492;-69
2023/05/06 00:33:10;;;;;;;2.10;1.40;;;19.40;57.80;;;;;;5051274;28;20259;-69
2023/05/06 00:35:35;;;;;;;1.80;1.20;;;19.50;57.40;;;;;;5048867;28;20192;-69
2023/05/06 00:38:12;;;;;;;2.00;1.40;;;19.50;57.40;;;;;;5051685;28;20630;-69
2023/05/06 00:40:39;;;;;;;2.13;1.60;;;19.50;57.40;;;;;;5051152;28;20199;-69
2023/05/06 00:43:05;;;;;;;3.20;1.50;;;19.50;58.50;;;;;;5050773;28;20438;-70
2023/05/06 00:45:30;;;;;;;2.10;1.50;;;19.70;56.80;;;;;;5048525;28;20435;-69
2023/05/06 00:47:57;;;;;;;2.83;2.03;;;19.50;57.40;;;;;;5046399;28;20518;-71
2023/05/06 00:50:23;;;;;;;1.80;1.20;;;19.50;57.40;;;;;;5050513;28;20176;-69
2023/05/06 00:52:50;;;;;;;2.17;1.63;;;19.50;57.40;;;;;;5049944;28;20477;-69
2023/05/06 00:55:16;;;;;;;1.90;1.30;;;19.40;57.40;;;;;;5051263;28;20443;-69
2023/05/06 00:57:42;;;;;;;2.90;1.67;;;19.60;55.90;;;;;;5048911;28;20492;-69
2023/05/06 01:00:10;;;;;;;2.10;1.30;;;19.70;54.80;;;;;;5044618;28;20909;-69
2023/05/06 01:02:36;;;;;;;2.43;1.57;;;19.80;54.00;;;;;;5042513;28;20438;-69
2023/05/06 01:05:02;;;;;;;2.43;1.50;;;19.80;53.30;;;;;;5051524;28;20455;-69
2023/05/06 01:07:55;;;;;;;2.40;1.53;;;19.70;55.50;;;;;;5051631;28;20199;-70
2023/05/06 01:10:35;;;;;;;1.80;1.20;;;19.70;55.10;;;;;;5048653;28;20493;-69
2023/05/06 01:13:11;;;;;;;2.10;1.50;;;19.50;55.50;;;;;;5051435;28;20402;-69
2023/05/06 01:15:46;;;;;;;1.90;1.30;;;19.50;56.60;;;;;;5051810;28;20451;-69
2023/05/06 01:18:17;;;;;;;2.00;1.47;;;19.50;56.90;;;;;;5051046;28;20481;-69
2023/05/06 01:20:51;;;;;;;2.03;1.40;;;19.40;56.50;;;;;;5050673;28;20542;-70
2023/05/06 01:23:17;;;;;;;2.17;1.60;;;19.40;56.30;;;;;;5049214;28;20936;-70
2023/05/06 01:25:43;;;;;;;2.00;1.40;;;19.30;56.70;;;;;;5051008;28;20426;-71
2023/05/06 01:28:10;;;;;;;2.00;1.40;;;19.30;56.50;;;;;;5050481;28;20806;-69
2023/05/06 01:30:51;;;;;;;2.70;1.60;;;19.20;56.00;;;;;;5049982;28;20176;-69
2023/05/06 01:33:35;;;;;;;2.00;1.30;;;19.20;56.10;;;;;;5049994;28;20468;-71
2023/05/06 01:36:21;;;;;;;2.10;1.50;;;19.00;56.70;;;;;;5051001;28;20443;-69
2023/05/06 01:38:53;;;;;;;2.20;1.50;;;18.90;57.60;;;;;;5050709;28;20556;-70
2023/05/06 01:41:20;;;;;;;3.00;1.60;;;18.90;56.60;;;;;;5043560;28;20495;-69
2023/05/06 01:43:47;;;;;;;17.83;2.43;;;18.80;55.70;;;;;;5046203;28;20499;-70
2023/05/06 01:48:57;;;;;;;2.23;1.60;;;18.70;55.50;;;;;;5052475;28;20575;-68
2023/05/06 01:51:23;;;;;;;2.20;1.60;;;18.60;56.00;;;;;;5034907;28;20432;-67
2023/05/06 01:53:49;;;;;;;2.50;1.40;;;18.60;56.60;;;;;;5035668;28;20877;-67
2023/05/06 01:56:15;;;;;;;2.20;1.50;;;18.50;56.60;;;;;;5041789;28;20468;-68
2023/05/06 01:58:41;;;;;;;2.20;1.53;;;18.50;56.00;;;;;;5039350;28;20228;-68
2023/05/06 02:01:06;;;;;;;2.37;1.60;;;18.40;56.40;;;;;;5034784;28;20467;-68
2023/05/06 02:03:32;;;;;;;2.23;1.47;;;18.40;56.30;;;;;;5036859;28;20191;-69
2023/05/06 02:05:57;;;;;;;2.10;1.50;;;18.40;56.40;;;;;;5041759;28;20189;-67
2023/05/06 02:08:23;;;;;;;2.40;1.70;;;18.40;56.40;;;;;;5036197;28;20692;-68
2023/05/06 02:10:49;;;;;;;2.43;1.50;;;18.40;56.70;;;;;;5035349;28;20215;-68
2023/05/06 02:13:17;;;;;;;2.47;1.40;;;18.50;57.00;;;;;;5027045;28;20207;-68
2023/05/06 02:15:42;;;;;;;2.23;1.47;;;18.40;57.70;;;;;;5030874;28;20184;-69
2023/05/06 02:18:08;;;;;;;2.10;1.40;;;18.50;56.50;;;;;;5025174;28;20451;-67
2023/05/06 02:20:34;;;;;;;1.90;1.20;;;18.40;57.10;;;;;;5034020;28;20212;-69
2023/05/06 02:22:59;;;;;;;3.60;1.73;;;18.50;56.50;;;;;;5028569;28;20194;-68
2023/05/06 02:25:25;;;;;;;1.93;1.27;;;18.50;56.50;;;;;;5034288;28;20724;-70
2023/05/06 02:27:51;;;;;;;2.00;1.33;;;18.50;56.50;;;;;;5039723;28;20207;-68
2023/05/06 02:30:16;;;;;;;2.00;1.33;;;18.40;56.40;;;;;;5034459;28;20559;-68
2023/05/06 02:32:42;;;;;;;2.30;1.70;;;18.30;56.30;;;;;;5036781;28;20549;-68
2023/05/06 02:35:08;;;;;;;6.27;1.97;;;18.30;57.20;;;;;;5028294;28;20685;-68
2023/05/06 02:37:33;;;;;;;2.00;1.30;;;18.30;56.40;;;;;;5032950;28;20202;-68
2023/05/06 02:39:59;;;;;;;1.90;1.30;;;18.30;56.30;;;;;;5039067;28;20446;-68
2023/05/06 02:42:24;;;;;;;2.00;1.33;;;18.30;56.30;;;;;;5035042;28;20276;-68
2023/05/06 02:44:50;;;;;;;2.37;1.47;;;18.20;55.80;;;;;;5023725;28;20200;-68
2023/05/06 02:47:16;;;;;;;2.73;1.73;;;18.20;55.70;;;;;;5031972;28;20200;-68
2023/05/06 02:49:41;;;;;;;2.50;1.70;;;18.20;55.60;;;;;;5029089;28;20197;-69
2023/05/06 02:52:07;;;;;;;2.37;1.50;;;18.10;56.10;;;;;;5038624;28;20210;-68
2023/05/06 02:54:32;;;;;;;2.00;1.30;;;18.00;56.00;;;;;;5029988;28;20231;-68
2023/05/06 02:56:58;;;;;;;2.17;1.40;;;17.90;55.90;;;;;;5032308;28;20181;-68
2023/05/06 02:59:23;;;;;;;2.07;1.40;;;17.90;55.90;;;;;;5039467;28;20200;-68
2023/05/06 03:01:49;;;;;;;2.03;1.30;;;17.90;55.90;;;;;;5021120;28;20228;-69
2023/05/06 03:04:15;;;;;;;2.03;1.30;;;17.80;56.30;;;;;;5022005;28;20189;-68
2023/05/06 03:06:40;;;;;;;2.70;1.63;;;17.90;55.90;;;;;;5017413;28;20212;-68
2023/05/06 03:09:07;;;;;;;1.97;1.30;;;17.90;55.90;;;;;;5025639;28;20237;-68
2023/05/06 03:11:33;;;;;;;2.20;1.50;;;17.80;55.80;;;;;;5022656;28;20228;-67
2023/05/06 03:13:58;;;;;;;4.93;2.40;;;17.90;55.40;;;;;;5026326;28;20412;-68
2023/05/06 03:16:24;;;;;;;1.93;1.30;;;17.90;55.10;;;;;;5013237;28;20179;-68
2023/05/06 03:18:49;;;;;;;2.03;1.30;;;17.80;55.80;;;;;;5017444;28;20205;-68
2023/05/06 03:21:15;;;;;;;2.53;1.60;;;17.70;55.60;;;;;;5017340;28;20265;-68
2023/05/06 03:23:41;;;;;;;2.17;1.50;;;17.70;55.70;;;;;;5025365;28;20208;-68
2023/05/06 03:26:06;;;;;;;2.50;1.53;;;17.70;55.70;;;;;;5024696;28;20219;-68
2023/05/06 03:28:32;;;;;;;2.20;1.50;;;17.70;55.80;;;;;;5014837;28;20215;-68
2023/05/06 03:30:57;;;;;;;2.23;1.40;;;17.60;55.60;;;;;;5021240;28;20701;-69
2023/05/06 03:33:23;;;;;;;2.33;1.40;;;17.50;55.50;;;;;;5021808;28;20180;-68
2023/05/06 03:35:49;;;;;;;1.80;1.20;;;17.60;55.20;;;;;;5020634;28;20703;-68
2023/05/06 03:38:14;;;;;;;1.93;1.30;;;17.60;54.80;;;;;;5014962;28;20210;-69
2023/05/06 03:40:40;;;;;;;2.00;1.33;;;17.50;54.50;;;;;;5025923;28;20204;-68
2023/05/06 03:43:05;;;;;;;2.03;1.40;;;17.50;54.30;;;;;;5020350;28;20196;-68
2023/05/06 03:45:31;;;;;;;2.30;1.53;;;17.30;54.60;;;;;;5023107;28;20621;-68
2023/05/06 03:47:56;;;;;;;1.90;1.20;;;17.20;55.30;;;;;;5021016;28;20217;-68
2023/05/06 03:50:22;;;;;;;2.00;1.30;;;17.20;55.60;;;;;;5017839;28;20182;-68
2023/05/06 03:52:48;;;;;;;1.87;1.23;;;17.10;56.10;;;;;;5020205;28;20242;-68
2023/05/06 03:55:13;;;;;;;2.00;1.33;;;17.30;55.40;;;;;;5017374;28;20616;-68
2023/05/06 03:57:39;;;;;;;2.07;1.40;;;17.30;55.40;;;;;;5023588;28;20204;-68
2023/05/06 04:00:05;;;;;;;1.90;1.30;;;17.30;55.80;;;;;;5012772;28;20189;-69
2023/05/06 04:02:33;;;;;;;1.90;1.27;;;17.20;57.10;;;;;;5020381;28;20230;-68
2023/05/06 04:04:59;;;;;;;2.10;1.40;;;17.40;55.90;;;;;;5011318;28;20436;-68
2023/05/06 04:07:25;;;;;;;1.87;1.20;;;17.50;55.50;;;;;;5026025;28;20542;-68
2023/05/06 04:09:50;;;;;;;2.13;1.40;;;17.40;55.80;;;;;;5016513;28;20216;-68
2023/05/06 04:12:16;;;;;;;3.07;1.77;;;17.40;55.40;;;;;;5012572;28;20180;-68
2023/05/06 04:14:41;;;;;;;2.43;1.73;;;17.40;55.40;;;;;;5012928;28;20218;-68
2023/05/06 04:17:07;;;;;;;2.23;1.53;;;17.40;55.50;;;;;;5013324;28;20169;-68
2023/05/06 04:19:32;;;;;;;1.97;1.40;;;17.40;56.00;;;;;;5012434;28;20772;-68
2023/05/06 04:21:58;;;;;;;2.57;1.50;;;17.40;55.90;;;;;;5012643;28;20189;-68
2023/05/06 04:24:24;;;;;;;2.53;1.60;;;17.50;55.50;;;;;;5012378;28;20177;-68
2023/05/06 04:26:50;;;;;;;2.20;1.43;;;17.50;55.50;;;;;;5013401;28;20257;-68
2023/05/06 04:29:15;;;;;;;2.77;1.53;;;17.40;55.60;;;;;;5013185;28;20181;-69
2023/05/06 04:31:41;;;;;;;1.80;1.20;;;17.30;56.10;;;;;;5010195;28;20797;-68
2023/05/06 04:34:06;;;;;;;2.10;1.40;;;17.40;55.90;;;;;;5012081;28;20176;-68
2023/05/06 04:36:32;;;;;;;1.90;1.40;;;17.40;56.50;;;;;;5019789;28;20184;-68
2023/05/06 04:38:58;;;;;;;2.10;1.50;;;17.40;56.40;;;;;;5019415;28;20412;-68
2023/05/06 04:41:24;;;;;;;2.10;1.43;;;17.40;55.40;;;;;;5020858;28;20220;-68
2023/05/06 04:43:50;;;;;;;2.10;1.40;;;17.40;56.20;;;;;;5023143;28;20194;-69
2023/05/06 04:46:16;;;;;;;1.90;1.30;;;17.40;55.50;;;;;;5019198;28;20489;-68
2023/05/06 04:48:41;;;;;;;2.10;1.50;;;17.50;55.50;;;;;;5022044;28;20204;-68
2023/05/06 04:51:08;;;;;;;2.00;1.30;;;17.50;55.50;;;;;;5012520;28;20264;-68
2023/05/06 04:53:33;;;;;;;2.97;1.97;;;17.50;55.50;;;;;;5014243;28;20181;-68
2023/05/06 04:55:59;;;;;;;1.90;1.40;;;17.70;55.00;;;;;;5019803;28;20470;-68
2023/05/06 04:58:25;;;;;;;2.00;1.40;;;17.70;54.60;;;;;;5024891;28;20680;-68
2023/05/06 05:00:50;;;;;;;1.80;1.20;;;17.50;55.50;;;;;;5020600;28;20199;-68
2023/05/06 05:03:16;;;;;;;1.87;1.30;;;17.60;55.60;;;;;;5015234;28;20188;-70
2023/05/06 05:05:42;;;;;;;2.00;1.40;;;17.70;54.50;;;;;;5019340;28;20322;-68
2023/05/06 05:08:09;;;;;;;2.20;1.57;;;17.60;56.00;;;;;;5024744;28;20655;-69
2023/05/06 05:10:34;;;;;;;2.10;1.50;;;17.60;54.60;;;;;;5032346;28;20423;-69
2023/05/06 05:13:00;;;;;;;2.00;1.23;;;17.60;55.70;;;;;;5014420;28;20924;-69
2023/05/06 05:15:26;;;;;;;1.80;1.30;;;17.60;55.70;;;;;;5011483;28;20177;-69
2023/05/06 05:17:51;;;;;;;1.80;1.20;;;17.80;55.50;;;;;;5010912;28;20229;-69
2023/05/06 05:20:17;;;;;;;1.90;1.40;;;17.80;55.50;;;;;;5011888;28;20178;-70
2023/05/06 05:22:42;;;;;;;1.90;1.40;;;17.90;54.80;;;;;;5010989;28;20182;-70
2023/05/06 05:25:08;;;;;;;2.00;1.30;;;17.90;54.70;;;;;;5009985;28;20602;-69
2023/05/06 05:27:34;;;;;;;2.10;1.40;;;18.00;56.00;;;;;;5011443;28;20713;-69
2023/05/06 05:29:59;;;;;;;1.70;1.20;;;18.00;54.60;;;;;;5012247;28;20301;-69
2023/05/06 05:32:25;;;;;;;2.10;1.50;;;17.90;56.20;;;;;;5012068;28;20173;-69
2023/05/06 05:34:51;;;;;;;1.87;1.30;;;17.80;56.00;;;;;;5015420;28;20227;-69
2023/05/06 05:37:17;;;;;;;17.83;2.47;;;17.80;56.10;;;;;;5012171;28;20216;-71
2023/05/06 05:39:42;;;;;;;2.00;1.47;;;17.30;57.50;;;;;;5017477;28;20443;-69
2023/05/06 05:42:08;;;;;;;3.23;2.13;;;16.90;60.40;;;;;;5018032;28;20191;-68
2023/05/06 05:44:34;;;;;;;1.97;1.40;;;16.80;62.00;;;;;;5019940;28;20553;-69
2023/05/06 05:47:00;;;;;;;2.00;1.37;;;16.80;62.30;;;;;;5008885;28;20211;-70
2023/05/06 05:49:26;;;;;;;2.10;1.50;;;17.10;61.70;;;;;;5020294;28;20201;-69
2023/05/06 05:51:51;;;;;;;1.90;1.30;;;17.20;61.10;;;;;;5018186;28;20440;-69
2023/05/06 05:54:17;;;;;;;1.90;1.30;;;17.40;60.90;;;;;;5015103;28;20181;-69
2023/05/06 05:56:42;;;;;;;2.37;1.63;;;17.40;60.30;;;;;;5015068;28;20219;-69
2023/05/06 05:59:08;;;;;;;2.53;1.83;;;17.40;61.20;;;;;;5018246;28;20576;-68
2023/05/06 06:01:33;;;;;;;2.40;1.50;;;17.00;61.00;;;;;;5022017;28;20182;-68
2023/05/06 06:03:59;;;;;;;3.03;2.23;;;17.00;64.70;;;;;;5022093;28;20192;-70
2023/05/06 06:06:25;;;;;;;2.60;1.60;;;16.90;63.70;;;;;;5014417;28;20181;-68
2023/05/06 06:08:51;;;;;;;3.20;1.90;;;16.70;66.10;;;;;;5016592;28;20303;-70
2023/05/06 06:11:17;;;;;;;2.27;1.50;;;16.80;67.40;;;;;;5012624;28;20943;-68
2023/05/06 06:13:42;;;;;;;2.10;1.40;;;17.10;63.20;;;;;;5010325;28;20428;-69
2023/05/06 06:16:08;;;;;;;3.40;2.60;;;17.10;64.60;;;;;;5008472;28;20194;-69
2023/05/06 06:18:34;;;;;;;2.70;1.90;;;17.20;63.70;;;;;;5046728;22;20236;-69
2023/05/06 06:20:59;;;;;;;2.20;1.30;;;17.50;61.80;;;;;;4988270;28;20681;-69
2023/05/06 06:23:25;;;;;;;2.73;1.77;;;17.30;63.30;;;;;;4989429;28;20191;-69
2023/05/06 06:25:50;;;;;;;2.53;1.77;;;17.70;60.50;;;;;;4989208;28;20186;-68
2023/05/06 06:28:16;;;;;;;2.30;1.57;;;17.90;59.10;;;;;;4984545;28;20212;-71
2023/05/06 06:30:41;;;;;;;2.30;1.53;;;18.30;57.60;;;;;;4987815;28;20206;-76
2023/05/06 06:33:07;;;;;;;2.00;1.20;;;18.30;56.80;;;;;;4989414;28;20184;-76
2023/05/06 06:35:33;;;;;;;2.23;1.47;;;17.80;58.30;;;;;;4993387;28;20231;-76
2023/05/06 06:37:59;;;;;;;2.20;1.37;;;17.40;61.40;;;;;;4991566;28;20181;-77
2023/05/06 06:40:24;;;;;;;2.17;1.40;;;17.20;63.50;;;;;;4995542;28;20816;-78
2023/05/06 06:42:50;;;;;;;3.90;2.27;;;17.50;61.30;;;;;;4996618;28;20188;-77
2023/05/06 06:45:16;;;;;;;2.37;1.53;;;17.80;60.50;;;;;;4997917;28;20178;-77
2023/05/06 06:47:42;;;;;;;2.60;1.70;;;17.60;61.30;;;;;;4992772;28;21405;-77
2023/05/06 06:50:08;;;;;;;2.00;1.23;;;18.10;60.20;;;;;;4995542;28;20452;-75
2023/05/06 06:52:34;;;;;;;2.20;1.50;;;18.50;54.50;;;;;;4994466;28;20185;-75
2023/05/06 06:55:00;;;;;;;2.60;1.50;;;18.60;54.70;;;;;;4993198;28;20425;-68
2023/05/06 06:57:26;;;;;;;3.60;2.03;;;18.90;53.60;;;;;;4989571;28;20454;-73
2023/05/06 06:59:52;;;;;;;2.30;1.50;;;19.20;53.70;;;;;;4993698;28;20489;-72
2023/05/06 07:02:19;;;;;;;3.30;2.33;;;19.30;52.00;;;;;;4994820;28;20186;-72
2023/05/06 07:04:44;;;;;;;2.43;1.70;;;19.20;51.70;;;;;;4987783;28;20453;-72
2023/05/06 07:07:10;;;;;;;3.20;1.97;;;19.20;52.50;;;;;;4988198;28;20467;-72
2023/05/06 07:09:36;;;;;;;3.73;2.00;;;19.60;50.90;;;;;;4993581;28;20207;-71
2023/05/06 07:12:01;;;;;;;2.40;1.50;;;19.90;50.90;;;;;;4994813;28;20174;-72
2023/05/06 07:14:27;;;;;;;2.47;1.50;;;20.10;49.30;;;;;;4991422;28;20189;-68
2023/05/06 07:16:53;;;;;;;2.53;1.60;;;20.40;49.10;;;;;;4993737;28;20640;-73
2023/05/06 07:19:18;;;;;;;3.23;1.83;;;20.70;47.00;;;;;;4993601;28;20748;-73
2023/05/06 07:21:44;;;;;;;2.27;1.40;;;20.60;47.00;;;;;;4994215;28;20178;-71
2023/05/06 07:24:10;;;;;;;3.00;1.87;;;20.60;46.90;;;;;;4994463;28;20633;-70
2023/05/06 07:26:36;;;;;;;2.70;1.47;;;20.70;45.00;;;;;;4990959;28;20268;-72
2023/05/06 07:29:03;;;;;;;2.77;1.80;;;20.80;44.30;;;;;;4994469;28;20688;-73
2023/05/06 07:31:30;;;;;;;3.90;1.97;;;20.80;44.00;;;;;;4990475;28;20459;-72
2023/05/06 07:33:57;;;;;;;3.30;2.10;;;20.60;46.50;;;;;;4993441;28;20442;-73
2023/05/06 07:36:23;;;;;;;2.17;1.23;;;18.80;46.70;;;;;;4992132;28;20523;-72
2023/05/06 07:38:48;;;;;;;3.20;1.70;;;19.60;47.90;;;;;;4993088;28;20539;-72
2023/05/06 07:41:14;;;;;;;3.17;1.70;;;19.40;48.40;;;;;;4992540;28;20971;-72
2023/05/06 07:43:39;;;;;;;2.30;1.40;;;19.10;50.70;;;;;;4993151;28;20264;-73
2023/05/06 07:46:05;;;;;;;2.67;1.57;;;19.40;50.30;;;;;;4992545;28;20197;-73
2023/05/06 07:48:32;;;;;;;3.17;1.60;;;19.80;48.80;;;;;;4991810;28;20211;-72
2023/05/06 07:50:58;;;;;;;2.40;1.60;;;20.00;45.50;;;;;;4994058;28;20170;-72
2023/05/06 07:53:25;;;;;;;2.90;2.00;;;18.90;47.70;;;;;;4991834;28;20451;-73
2023/05/06 07:55:51;;;;;;;2.20;1.30;;;19.10;51.20;;;;;;4990067;28;20443;-73
2023/05/06 07:58:20;;;;;;;2.50;1.67;;;19.20;48.40;;;;;;4988519;28;20463;-71
2023/05/06 08:00:45;;;;;;;2.20;1.30;;;19.50;48.60;;;;;;4988212;28;21050;-69
2023/05/06 08:03:11;;;;;;;2.60;1.60;;;19.50;46.90;;;;;;4990115;28;20472;-69
2023/05/06 08:05:37;;;;;;;2.47;1.57;;;19.40;48.80;;;;;;4991111;28;20536;-71
2023/05/06 08:08:03;;;;;;;2.73;1.70;;;19.50;47.00;;;;;;4992283;28;20220;-71
2023/05/06 08:10:28;;;;;;;2.50;1.60;;;19.70;45.80;;;;;;4991906;28;20208;-71
2023/05/06 08:12:54;;;;;;;2.20;1.23;;;19.20;47.70;;;;;;4993160;28;20652;-71
2023/05/06 08:15:20;;;;;;;2.90;1.90;;;19.60;47.70;;;;;;4991583;28;20702;-72
2023/05/06 08:17:45;;;;;;;2.77;1.60;;;19.60;46.40;;;;;;4993594;28;20429;-70
2023/05/06 08:20:12;;;;;;;2.70;1.60;;;20.10;42.60;;;;;;4991547;28;20312;-71
2023/05/06 08:22:38;;;;;;;2.50;1.50;;;19.70;42.50;;;;;;4990737;28;20174;-71
2023/05/06 08:25:04;;;;;;;14.80;3.03;;;20.00;45.30;;;;;;4993514;28;20777;-69
2023/05/06 08:27:30;;;;;;;2.40;1.23;;;20.40;42.40;;;;;;4989203;28;20213;-71
2023/05/06 08:29:56;;;;;;;2.57;1.53;;;20.40;43.20;;;;;;4988832;28;20468;-71
2023/05/06 08:32:21;;;;;;;2.60;1.57;;;21.20;43.30;;;;;;4990075;28;20425;-67
2023/05/06 08:34:47;;;;;;;3.50;1.70;;;21.40;43.00;;;;;;4980547;28;20179;-68
2023/05/06 08:37:13;;;;;;;2.77;1.37;;;21.40;40.10;;;;;;4990315;28;20270;-70
2023/05/06 08:39:38;;;;;;;2.70;1.60;;;21.60;39.10;;;;;;4991198;28;20367;-67
2023/05/06 08:42:05;;;;;;;2.40;1.20;;;21.50;35.50;;;;;;4978373;28;20193;-69
2023/05/06 08:44:32;;;;;;;19.70;1.63;;;20.90;36.50;;;;;;4987632;28;20677;-70
2023/05/06 08:46:58;;;;;;;3.57;1.70;;;20.40;38.50;;;;;;4991761;28;20568;-71
2023/05/06 08:49:24;;;;;;;2.67;1.30;;;20.10;41.90;;;;;;4988672;28;20541;-71
2023/05/06 08:51:53;;;;;;;2.80;1.57;;;19.90;39.40;;;;;;4988995;28;20435;-69
2023/05/06 08:54:19;;;;;;;2.70;1.43;;;19.80;40.80;;;;;;4991002;28;20450;-70
2023/05/06 08:56:51;;;;;;;3.63;2.00;;;19.30;41.40;;;;;;4988544;28;20873;-69
2023/05/06 08:59:22;;;;;;;3.90;2.00;;;19.50;40.60;;;;;;4991734;28;20206;-67
2023/05/06 09:01:48;;;;;;;3.03;1.67;;;19.90;40.70;;;;;;4986889;28;20465;-70
2023/05/06 09:04:17;;;;;;;2.70;1.40;;;19.50;41.20;;;;;;4986355;28;20439;-71
2023/05/06 09:06:42;;;;;;;4.27;1.73;;;19.50;41.00;;;;;;4983429;28;20179;-71
2023/05/06 09:09:08;;;;;;;3.60;1.70;;;20.40;40.30;;;;;;4989884;28;20462;-71
2023/05/06 09:11:39;;;;;;;2.90;1.60;;;20.90;40.00;;;;;;4985028;28;20190;-71
2023/05/06 09:14:13;;;;;;;2.83;1.40;;;21.10;38.10;;;;;;4989453;28;20188;-71
2023/05/06 09:16:41;;;;;;;3.20;1.40;;;21.00;36.60;;;;;;4992460;28;20403;-71
2023/05/06 09:19:07;;;;;;;2.90;1.40;;;20.50;35.90;;;;;;4992592;28;20452;-70
2023/05/06 09:21:44;;;;;;;3.50;1.67;;;20.80;37.00;;;;;;4992190;28;20426;-71
2023/05/06 09:24:11;;;;;;;3.00;1.47;;;20.40;37.00;;;;;;4988432;28;20421;-71
2023/05/06 09:26:39;;;;;;;3.20;1.57;;;20.80;35.20;;;;;;4992073;28;20920;-71
2023/05/06 09:29:05;;;;;;;3.53;1.47;;;21.30;34.00;;;;;;4992484;28;20455;-71
2023/05/06 09:31:31;;;;;;;3.03;1.43;;;21.50;33.30;;;;;;4991323;28;20994;-71
2023/05/06 09:33:59;;;;;;;3.20;1.50;;;22.20;32.00;;;;;;4989558;28;20470;-72
2023/05/06 09:36:27;;;;;;;3.10;1.37;;;22.10;32.00;;;;;;4992235;28;20548;-71
2023/05/06 09:38:54;;;;;;;3.70;1.50;;;21.40;33.70;;;;;;4992571;28;20438;-72
2023/05/06 09:41:21;;;;;;;2.90;1.30;;;22.30;34.40;;;;;;4992405;28;20416;-72
2023/05/06 09:43:48;;;;;;;3.03;1.30;;;22.70;32.70;;;;;;4990270;28;20518;-72
2023/05/06 09:46:15;;;;;;;3.30;1.57;;;23.20;31.10;;;;;;4991764;28;20531;-72
2023/05/06 09:48:41;;;;;;;3.73;1.53;;;23.30;28.40;;;;;;4990844;28;20458;-72
2023/05/06 09:51:07;;;;;;;3.47;1.37;;;23.00;35.20;;;;;;4991151;28;20844;-72
2023/05/06 09:53:36;;;;;;;3.83;1.50;;;22.60;32.70;;;;;;4991784;28;20415;-72
2023/05/06 09:56:05;;;;;;;3.10;1.37;;;22.70;30.80;;;;;;4991170;28;20183;-72
2023/05/06 09:58:32;;;;;;;3.73;1.70;;;22.70;30.60;;;;;;4992994;28;20461;-72
2023/05/06 10:00:58;;;;;;;3.53;1.40;;;22.40;33.20;;;;;;4992243;28;20856;-72
2023/05/06 10:03:25;;;;;;;3.00;1.20;;;22.80;31.30;;;;;;4991728;28;20407;-72
2023/05/06 10:05:52;;;;;;;3.20;1.30;;;22.70;30.00;;;;;;4987406;28;20482;-69
2023/05/06 10:08:18;;;;;;;3.23;1.30;;;22.40;29.10;;;;;;4986258;28;20461;-72
2023/05/06 10:10:47;;;;;;;3.13;1.27;;;21.60;30.00;;;;;;4996086;28;20801;-72
2023/05/06 10:13:15;;;;;;;3.60;1.47;;;21.40;30.10;;;;;;4995428;28;20406;-71
2023/05/06 10:15:44;;;;;;;3.50;1.60;;;21.40;31.60;;;;;;4994629;28;20472;-72
2023/05/06 10:18:10;;;;;;;3.00;1.27;;;21.20;32.80;;;;;;4994280;28;21150;-72
2023/05/06 10:20:39;;;;;;;3.30;1.40;;;21.20;31.30;;;;;;4995748;28;20856;-72
2023/05/06 10:23:07;;;;;;;3.20;1.40;;;20.80;32.80;;;;;;4995371;28;20416;-72
2023/05/06 10:25:37;;;;;;;3.10;1.30;;;21.30;30.00;;;;;;4995852;28;20420;-72
2023/05/06 10:28:07;;;;;;;3.20;1.40;;;21.70;31.60;;;;;;4994470;28;20976;-69
2023/05/06 10:30:34;;;;;;;3.20;1.30;;;22.70;30.80;;;;;;4995323;28;20479;-72
2023/05/06 10:33:08;;;;;;;3.00;1.20;;;22.90;30.00;;;;;;4995310;28;20412;-73
2023/05/06 10:35:48;;;;;;;3.53;1.40;;;22.60;27.90;;;;;;4996359;28;20889;-73
2023/05/06 10:38:32;;;;;;;3.00;1.20;;;23.50;29.00;;;;;;4993487;28;20439;-70
2023/05/06 10:40:59;;;;;;;3.40;1.40;;;24.20;27.40;;;;;;4990323;28;20423;-74
2023/05/06 10:43:31;;;;;;;3.00;1.20;;;24.30;25.10;;;;;;4995422;28;20408;-75
2023/05/06 10:46:07;;;;;;;3.20;1.30;;;24.40;26.70;;;;;;4995774;28;20397;-75
2023/05/06 10:48:34;;;;;;;3.07;1.40;;;23.70;25.30;;;;;;4993255;28;20841;-72
2023/05/06 10:51:15;;;;;;;3.00;1.20;;;23.40;25.70;;;;;;4993045;28;20440;-72
2023/05/06 10:54:08;;;;;;;3.00;1.20;;;23.60;26.30;;;;;;4992737;28;20422;-72
2023/05/06 10:57:01;;;;;;;3.77;1.50;;;23.30;25.10;;;;;;4993852;28;20448;-70
2023/05/06 10:59:30;;;;;;;3.30;1.40;;;23.20;28.30;;;;;;4992411;28;20491;-72
2023/05/06 11:02:01;;;;;;;3.10;1.27;;;24.30;24.90;;;;;;4993227;28;21079;-72
2023/05/06 11:04:29;;;;;;;3.10;1.30;;;24.00;24.70;;;;;;4989385;28;20494;-72
2023/05/06 11:07:12;;;;;;;3.10;1.20;;;23.50;24.70;;;;;;4993202;28;20439;-72
2023/05/06 11:10:09;;;;;;;3.10;1.30;;;22.70;23.70;;;;;;4987428;28;20460;-73
2023/05/06 11:12:51;;;;;;;3.10;1.30;;;23.10;25.20;;;;;;4955164;28;20446;-70
2023/05/06 11:15:25;;;;;;;3.00;1.10;;;23.60;26.50;;;;;;4949315;28;20681;-69
2023/05/06 11:17:53;;;;;;;3.10;1.20;;;23.10;24.30;;;;;;4943079;28;20445;-70
2023/05/06 11:20:23;;;;;;;3.10;1.30;;;24.00;22.20;;;;;;4943605;28;20474;-71
2023/05/06 11:22:49;;;;;;;3.20;1.30;;;25.40;23.00;;;;;;4940385;28;21594;-69
2023/05/06 11:25:38;;;;;;;3.20;1.30;;;25.90;20.40;;;;;;4949966;28;20577;-70
2023/05/06 11:28:10;;;;;;;3.00;1.20;;;26.40;21.90;;;;;;4951633;28;20218;-72
2023/05/06 11:30:42;;;;;;;3.80;1.43;;;28.00;19.40;;;;;;4952224;28;20578;-72
2023/05/06 11:33:12;;;;;;;3.40;1.10;;;29.00;18.90;;;;;;4948872;28;20434;-72
2023/05/06 11:35:38;;;;;;;3.60;1.20;;;30.10;17.30;;;;;;4964307;28;20776;-72
2023/05/06 11:38:04;;;;;;;3.67;1.10;;;31.70;16.10;;;;;;4946332;28;20496;-73
2023/05/06 11:40:30;;;;;;;3.90;1.20;;;32.40;15.00;;;;;;4957346;28;20458;-73
2023/05/06 11:43:13;;;;;;;3.50;1.20;;;31.70;14.60;;;;;;4955034;28;20431;-73
2023/05/06 11:45:44;;;;;;;3.00;1.10;;;32.50;16.30;;;;;;4960995;28;20425;-71
2023/05/06 11:48:16;;;;;;;2.90;1.10;;;30.60;13.00;;;;;;4963484;28;20534;-73
2023/05/06 11:50:46;;;;;;;3.20;1.20;;;30.90;15.30;;;;;;4991411;28;20448;-73
2023/05/06 11:53:15;;;;;;;2.60;1.00;;;31.90;14.50;;;;;;4991881;28;20460;-74
2023/05/06 11:55:42;;;;;;;2.60;1.10;;;31.50;12.00;;;;;;4990440;28;20421;-72
2023/05/06 11:58:22;;;;;;;2.37;1.10;;;32.10;13.10;;;;;;4989698;28;20940;-72
2023/05/06 12:00:50;;;;;;;2.30;1.10;;;33.80;12.60;;;;;;4986314;28;20437;-71
2023/05/06 12:03:16;;;;;;;2.70;1.00;;;34.40;11.70;;;;;;4992021;28;20437;-71
2023/05/06 12:05:43;;;;;;;1.30;1.00;;;33.80;11.60;;;;;;4985790;28;20436;-73
2023/05/06 12:08:09;;;;;;;1.90;1.07;;;34.20;9.30;;;;;;4993753;28;20480;-72
2023/05/06 12:10:36;;;;;;;1.80;1.00;;;32.50;12.00;;;;;;4991920;28;20542;-73
2023/05/06 12:13:03;;;;;;;2.00;1.20;;;32.70;12.10;;;;;;4988522;28;20743;-70
2023/05/06 12:15:29;;;;;;;2.10;1.13;;;32.50;11.80;;;;;;4987293;28;20512;-71
2023/05/06 12:17:55;;;;;;;2.10;1.20;;;32.00;15.10;;;;;;4991508;28;20523;-73
2023/05/06 12:20:21;;;;;;;2.80;1.30;;;31.90;15.20;;;;;;4990353;28;20275;-72
2023/05/06 12:23:13;;;;;;;2.47;1.10;;;30.50;12.80;;;;;;5026455;23;20200;-77
2023/05/06 12:25:40;;;;;;;2.60;1.10;;;29.10;14.80;;;;;;4983901;28;20436;-75
2023/05/06 12:28:17;;;;;;;2.50;1.00;;;29.80;14.40;;;;;;4988660;28;20524;-74
2023/05/06 12:30:42;;;;;;;2.70;1.10;;;28.80;14.80;;;;;;4986139;28;20447;-73
2023/05/06 12:33:10;;;;;;;2.73;1.20;;;28.50;17.00;;;;;;4981829;28;20457;-74
2023/05/06 12:35:36;;;;;;;2.80;1.20;;;28.60;15.40;;;;;;4976260;28;20173;-75
2023/05/06 12:38:16;;;;;;;3.07;1.30;;;28.60;15.80;;;;;;4977725;28;20444;-74
2023/05/06 12:40:44;;;;;;;2.80;1.10;;;29.20;14.80;;;;;;4968865;28;20511;-75
2023/05/06 12:43:10;;;;;;;3.10;1.40;;;29.40;14.20;;;;;;4973079;28;20434;-75
2023/05/06 12:45:39;;;;;;;2.83;1.20;;;29.10;15.10;;;;;;4972162;28;20476;-75
2023/05/06 12:48:06;;;;;;;3.20;1.20;;;29.60;16.50;;;;;;4973384;28;20969;-75
2023/05/06 12:50:33;;;;;;;3.00;1.10;;;30.60;15.80;;;;;;4972626;28;20488;-75